SwiSS Ladder 120 — S-L-120 — position and weather

sailwx.info

Track history (hours):
 
Tides and Currents Weather Stations Pressure Air Temp Water Temp Dewpoint Dewpoint Depression Visibility Wind Speed Wind Dir Waves Ship Positions

SwiSS Ladder 120

Last reported at 2017-Oct-19 02:36 UTC. Time now 2017-Oct-22 08:15 UTC.
Position N 34°09' W 119°13'.

Length 37 m; draft 2 m.

Type: Military. MMSI: 369970278.

Date/timePositionNaut miles runAvg speedWind from/ knotsBaromVisibWave heightAir tempDewpointWater temp
2017-Oct-19 02:36N 34°09' W 119°13'0 0.0
2017-Oct-19 02:30N 34°09' W 119°13'0 0.2
2017-Oct-19 02:01N 34°09' W 119°13'714.4
2017-Oct-19 01:30N 34°04' W 119°18'1020.4
2017-Oct-19 01:00N 33°56' W 119°26'3 6.5
2017-Oct-19 00:30N 33°54' W 119°29'2 3.1
2017-Oct-18 23:58N 33°53' W 119°31'0 0.5
2017-Oct-18 23:30N 33°53' W 119°31'2 3.4
2017-Oct-18 23:00N 33°54' W 119°33'1 2.1
2017-Oct-18 22:30N 33°54' W 119°34'3 5.2
2017-Oct-18 22:01N 33°57' W 119°34'0 0.6
2017-Oct-18 21:30N 33°56' W 119°34'0 0.7
2017-Oct-18 20:58N 33°56' W 119°34'0 0.7
2017-Oct-18 20:29N 33°56' W 119°35'0 0.6
2017-Oct-18 19:58N 33°55' W 119°35'0 0.6
2017-Oct-18 19:30N 33°55' W 119°35'0 0.5
2017-Oct-18 18:55N 33°55' W 119°35'0 0.5
2017-Oct-18 18:28N 33°55' W 119°35'1 2.7
2017-Oct-18 17:56N 33°54' W 119°33'0 0.3
2017-Oct-18 17:30N 33°54' W 119°33'0 0.3
2017-Oct-18 17:00N 33°54' W 119°33'0 0.3
2017-Oct-18 16:23N 33°53' W 119°33'0 0.2
2017-Oct-18 15:50N 33°53' W 119°33'0 0.1
2017-Oct-18 15:29N 33°53' W 119°33'3 6.2
2017-Oct-18 14:59N 33°56' W 119°32'1818.6
2017-Oct-18 14:00N 34°07' W 119°15'3 5.3
2017-Oct-18 13:29N 34°09' W 119°13'0 0.0
2017-Oct-17 19:16N 34°09' W 119°13'0 0.0
2017-Oct-17 19:00N 34°09' W 119°13'0 0.5
2017-Oct-17 18:30N 34°09' W 119°13'917.9
2017-Oct-17 18:00N 34°02' W 119°20'1019.6
2017-Oct-17 17:30N 33°56' W 119°29'5 9.2
2017-Oct-17 16:56N 33°53' W 119°34'1 1.3
2017-Oct-17 16:17N 33°53' W 119°33'310.9
2017-Oct-17 16:00N 33°54' W 119°29'917.4
2017-Oct-17 15:30N 33°59' W 119°21'815.9
2017-Oct-17 15:00N 34°06' W 119°16'  
2017-Oct-14 00:45N 34°09' W 119°13'0 0.5
2017-Oct-14 00:29N 34°09' W 119°13'3 6.6
2017-Oct-14 00:00N 34°06' W 119°15'1319.8
2017-Oct-13 23:20N 33°56' W 119°24'719.7
2017-Oct-13 23:00N 33°50' W 119°28'5 9.6
2017-Oct-13 22:29N 33°46' W 119°32'1 2.5
2017-Oct-13 21:55N 33°48' W 119°33'0 1.0
2017-Oct-13 21:31N 33°47' W 119°33'4 8.0
2017-Oct-13 21:00N 33°51' W 119°32'1 1.1
2017-Oct-13 20:25N 33°51' W 119°33'0 1.0
2017-Oct-13 19:58N 33°51' W 119°33'1 2.4
2017-Oct-13 19:30N 33°52' W 119°33'1018.1
2017-Oct-13 18:59N 34°00' W 119°28'1020.6
2017-Oct-13 18:30N 34°06' W 119°18'6 0.3
2017-Oct-13 01:33N 34°09' W 119°13'0 0.0
2017-Oct-13 01:30N 34°09' W 119°13'612.7
2017-Oct-13 01:00N 34°04' W 119°17'1018.9
2017-Oct-13 00:30N 33°58' W 119°26'1018.3
2017-Oct-12 23:57N 33°51' W 119°35'817.1
2017-Oct-12 23:30N 33°46' W 119°41'1 1.3
2017-Oct-12 23:00N 33°46' W 119°42'1 1.3
2017-Oct-12 22:30N 33°47' W 119°42'0 0.9
2017-Oct-12 22:01N 33°47' W 119°43'1 1.6
2017-Oct-12 21:29N 33°47' W 119°43'0 0.6
2017-Oct-12 20:59N 33°47' W 119°43'1 1.4
2017-Oct-12 20:30N 33°48' W 119°43'1 1.8
2017-Oct-12 19:48N 33°49' W 119°43'0 0.6
2017-Oct-12 19:29N 33°49' W 119°43'0 0.5
2017-Oct-12 19:00N 33°49' W 119°43'815.9
2017-Oct-12 18:30N 33°53' W 119°35'815.9
2017-Oct-12 18:00N 33°57' W 119°26'815.7
2017-Oct-12 17:29N 34°02' W 119°19'816.0
2017-Oct-12 17:00N 34°08' W 119°13'1 0.1
2017-Oct-12 00:45N 34°09' W 119°13'0 0.7
2017-Oct-12 00:30N 34°09' W 119°13'1 1.8
2017-Oct-12 00:00N 34°08' W 119°12'3 6.2
2017-Oct-11 23:31N 34°06' W 119°15'917.1
2017-Oct-11 23:01N 34°00' W 119°22'917.1
2017-Oct-11 22:30N 33°55' W 119°30'917.4
2017-Oct-11 22:01N 33°49' W 119°38'510.1
2017-Oct-11 21:31N 33°46' W 119°43'3 5.2
2017-Oct-11 21:00N 33°48' W 119°41'1 1.1
2017-Oct-11 20:29N 33°49' W 119°42'0 1.0
2017-Oct-11 20:00N 33°49' W 119°42'0 1.0
2017-Oct-11 19:30N 33°49' W 119°42'0 0.4
2017-Oct-11 19:00N 33°49' W 119°42'814.9
2017-Oct-11 18:30N 33°56' W 119°38'815.3
2017-Oct-11 18:00N 33°57' W 119°28'917.6
2017-Oct-11 17:30N 34°02' W 119°20'918.6
2017-Oct-11 17:00N 34°09' W 119°13'29 1.7
2017-Oct-11 00:00N 33°54' W 119°42'2 4.4
2017-Oct-10 23:30N 33°54' W 119°45'0 0.4
2017-Oct-10 23:00N 33°53' W 119°45'0 0.4
2017-Oct-10 22:30N 33°53' W 119°45'0 0.4
2017-Oct-10 22:01N 33°54' W 119°45'0 0.1
2017-Oct-10 21:26N 33°53' W 119°45'0 0.2
2017-Oct-10 21:01N 33°54' W 119°45'0 0.5
2017-Oct-10 20:30N 33°54' W 119°45'0 0.3
2017-Oct-10 20:00N 33°53' W 119°45'0 0.4
2017-Oct-10 19:30N 33°53' W 119°45'612.1
2017-Oct-10 19:00N 33°53' W 119°38'4 8.0
2017-Oct-10 18:30N 33°53' W 119°33'1 1.5
2017-Oct-10 18:01N 33°54' W 119°33'1019.1
2017-Oct-10 17:31N 34°02' W 119°27'1019.0
2017-Oct-10 17:00N 34°07' W 119°17'  
Track history (hours):
 
Tides and Currents Weather Stations Pressure Air Temp Water Temp Dewpoint Dewpoint Depression Visibility Wind Speed Wind Dir Waves Ship Positions

SwiSS Ladder 120

Last reported at 2017-Oct-19 02:36 UTC. Time now 2017-Oct-22 08:15 UTC.
Position N 34°09' W 119°13'.

Length 37 m; draft 2 m.

Type: Military. MMSI: 369970278.

Date/timePositionNaut miles runAvg speedWind from/ knotsBaromVisibWave heightAir tempDewpointWater temp
2017-Oct-19 02:36N 34°09' W 119°13'0 0.0
2017-Oct-19 02:30N 34°09' W 119°13'0 0.2
2017-Oct-19 02:01N 34°09' W 119°13'714.4
2017-Oct-19 01:30N 34°04' W 119°18'1020.4
2017-Oct-19 01:00N 33°56' W 119°26'3 6.5
2017-Oct-19 00:30N 33°54' W 119°29'2 3.1
2017-Oct-18 23:58N 33°53' W 119°31'0 0.5
2017-Oct-18 23:30N 33°53' W 119°31'2 3.4
2017-Oct-18 23:00N 33°54' W 119°33'1 2.1
2017-Oct-18 22:30N 33°54' W 119°34'3 5.2
2017-Oct-18 22:01N 33°57' W 119°34'0 0.6
2017-Oct-18 21:30N 33°56' W 119°34'0 0.7
2017-Oct-18 20:58N 33°56' W 119°34'0 0.7
2017-Oct-18 20:29N 33°56' W 119°35'0 0.6
2017-Oct-18 19:58N 33°55' W 119°35'0 0.6
2017-Oct-18 19:30N 33°55' W 119°35'0 0.5
2017-Oct-18 18:55N 33°55' W 119°35'0 0.5
2017-Oct-18 18:28N 33°55' W 119°35'1 2.7
2017-Oct-18 17:56N 33°54' W 119°33'0 0.3
2017-Oct-18 17:30N 33°54' W 119°33'0 0.3
2017-Oct-18 17:00N 33°54' W 119°33'0 0.3
2017-Oct-18 16:23N 33°53' W 119°33'0 0.2
2017-Oct-18 15:50N 33°53' W 119°33'0 0.1
2017-Oct-18 15:29N 33°53' W 119°33'3 6.2
2017-Oct-18 14:59N 33°56' W 119°32'1818.6
2017-Oct-18 14:00N 34°07' W 119°15'3 5.3
2017-Oct-18 13:29N 34°09' W 119°13'0 0.0
2017-Oct-17 19:16N 34°09' W 119°13'0 0.0
2017-Oct-17 19:00N 34°09' W 119°13'0 0.5
2017-Oct-17 18:30N 34°09' W 119°13'917.9
2017-Oct-17 18:00N 34°02' W 119°20'1019.6
2017-Oct-17 17:30N 33°56' W 119°29'5 9.2
2017-Oct-17 16:56N 33°53' W 119°34'1 1.3
2017-Oct-17 16:17N 33°53' W 119°33'310.9
2017-Oct-17 16:00N 33°54' W 119°29'917.4
2017-Oct-17 15:30N 33°59' W 119°21'815.9
2017-Oct-17 15:00N 34°06' W 119°16'  
2017-Oct-14 00:45N 34°09' W 119°13'0 0.5
2017-Oct-14 00:29N 34°09' W 119°13'3 6.6
2017-Oct-14 00:00N 34°06' W 119°15'1319.8
2017-Oct-13 23:20N 33°56' W 119°24'719.7
2017-Oct-13 23:00N 33°50' W 119°28'5 9.6
2017-Oct-13 22:29N 33°46' W 119°32'1 2.5
2017-Oct-13 21:55N 33°48' W 119°33'0 1.0
2017-Oct-13 21:31N 33°47' W 119°33'4 8.0
2017-Oct-13 21:00N 33°51' W 119°32'1 1.1
2017-Oct-13 20:25N 33°51' W 119°33'0 1.0
2017-Oct-13 19:58N 33°51' W 119°33'1 2.4
2017-Oct-13 19:30N 33°52' W 119°33'1018.1
2017-Oct-13 18:59N 34°00' W 119°28'1020.6
2017-Oct-13 18:30N 34°06' W 119°18'6 0.3
2017-Oct-13 01:33N 34°09' W 119°13'0 0.0
2017-Oct-13 01:30N 34°09' W 119°13'612.7
2017-Oct-13 01:00N 34°04' W 119°17'1018.9
2017-Oct-13 00:30N 33°58' W 119°26'1018.3
2017-Oct-12 23:57N 33°51' W 119°35'817.1
2017-Oct-12 23:30N 33°46' W 119°41'1 1.3
2017-Oct-12 23:00N 33°46' W 119°42'1 1.3
2017-Oct-12 22:30N 33°47' W 119°42'0 0.9
2017-Oct-12 22:01N 33°47' W 119°43'1 1.6
2017-Oct-12 21:29N 33°47' W 119°43'0 0.6
2017-Oct-12 20:59N 33°47' W 119°43'1 1.4
2017-Oct-12 20:30N 33°48' W 119°43'1 1.8
2017-Oct-12 19:48N 33°49' W 119°43'0 0.6
2017-Oct-12 19:29N 33°49' W 119°43'0 0.5
2017-Oct-12 19:00N 33°49' W 119°43'815.9
2017-Oct-12 18:30N 33°53' W 119°35'815.9
2017-Oct-12 18:00N 33°57' W 119°26'815.7
2017-Oct-12 17:29N 34°02' W 119°19'816.0
2017-Oct-12 17:00N 34°08' W 119°13'1 0.1
2017-Oct-12 00:45N 34°09' W 119°13'0 0.7
2017-Oct-12 00:30N 34°09' W 119°13'1 1.8
2017-Oct-12 00:00N 34°08' W 119°12'3 6.2
2017-Oct-11 23:31N 34°06' W 119°15'917.1
2017-Oct-11 23:01N 34°00' W 119°22'917.1
2017-Oct-11 22:30N 33°55' W 119°30'917.4
2017-Oct-11 22:01N 33°49' W 119°38'510.1
2017-Oct-11 21:31N 33°46' W 119°43'3 5.2
2017-Oct-11 21:00N 33°48' W 119°41'1 1.1
2017-Oct-11 20:29N 33°49' W 119°42'0 1.0
2017-Oct-11 20:00N 33°49' W 119°42'0 1.0
2017-Oct-11 19:30N 33°49' W 119°42'0 0.4
2017-Oct-11 19:00N 33°49' W 119°42'814.9
2017-Oct-11 18:30N 33°56' W 119°38'815.3
2017-Oct-11 18:00N 33°57' W 119°28'917.6
2017-Oct-11 17:30N 34°02' W 119°20'918.6
2017-Oct-11 17:00N 34°09' W 119°13'29 1.7
2017-Oct-11 00:00N 33°54' W 119°42'2 4.4
2017-Oct-10 23:30N 33°54' W 119°45'0 0.4
2017-Oct-10 23:00N 33°53' W 119°45'0 0.4
2017-Oct-10 22:30N 33°53' W 119°45'0 0.4
2017-Oct-10 22:01N 33°54' W 119°45'0 0.1
2017-Oct-10 21:26N 33°53' W 119°45'0 0.2
2017-Oct-10 21:01N 33°54' W 119°45'0 0.5
2017-Oct-10 20:30N 33°54' W 119°45'0 0.3
2017-Oct-10 20:00N 33°53' W 119°45'0 0.4
2017-Oct-10 19:30N 33°53' W 119°45'612.1
2017-Oct-10 19:00N 33°53' W 119°38'4 8.0
2017-Oct-10 18:30N 33°53' W 119°33'1 1.5
2017-Oct-10 18:01N 33°54' W 119°33'1019.1
2017-Oct-10 17:31N 34°02' W 119°27'1019.0
2017-Oct-10 17:00N 34°07' W 119°17'  

Dump ship's entire track history